Back to Top

Language: 

My Weather Underground Personal Weather Station Historical Data with Graphs...

Delerius Weather Station Historical Data
Daily Summary for March 24, 2017 Units:  English    Metric   Both
« Previous Day
Next Day »
Daily Weekly Monthly Yearly Custom
  High: Low: Average:
Temperature: 55.8 °F 33.3 °F 44 °F
Dew Point: 41.7 °F 30.4 °F 36 °F
Humidity: 96 % 46 % 76 %
Wind Speed: 8.0 mph 0.0 mph 3.3 mph
Wind Gust: 16.0 mph - -
Wind:- - ENE
Pressure: 30.60 in 30.38 in -
Precipitation: 0.00 in    
Historical Graphs
 
 
Tabular Data for March 24, 2017
Time Temperature Dew Point Pressure Wind Wind Speed Wind Gust Humidity Rainfall Rate (Hourly) solar Conditions
00:04 39.4 °F 37.8 °F 30.38 in NE 3.0 mph 8.0 mph 94 % 0.00 in 0 W/m2
00:09 39.4 °F 37.8 °F 30.38 in East 2.0 mph 8.0 mph 94 % 0.00 in 0 W/m2
00:14 39.4 °F 37.8 °F 30.38 in East 1.0 mph 5.0 mph 94 % 0.00 in 0 W/m2
00:19 39.4 °F 37.8 °F 30.38 in ENE 2.0 mph 5.0 mph 94 % 0.00 in 0 W/m2
00:24 39.4 °F 37.8 °F 30.39 in NE 2.0 mph 6.0 mph 94 % 0.00 in 0 W/m2
00:29 39.4 °F 37.8 °F 30.39 in NE 1.0 mph 6.0 mph 94 % 0.00 in 0 W/m2
00:34 39.2 °F 37.6 °F 30.39 in NE 2.0 mph 6.0 mph 94 % 0.00 in 0 W/m2
00:39 39.2 °F 37.6 °F 30.40 in NE 3.0 mph 7.0 mph 94 % 0.00 in 0 W/m2
00:44 39.2 °F 37.6 °F 30.39 in NE 3.0 mph 8.0 mph 94 % 0.00 in 0 W/m2
00:49 39.0 °F 37.4 °F 30.39 in NE 4.0 mph 10.0 mph 94 % 0.00 in 0 W/m2
00:54 39.0 °F 37.4 °F 30.40 in NE 4.0 mph 10.0 mph 94 % 0.00 in 0 W/m2
00:59 39.0 °F 37.4 °F 30.40 in NE 4.0 mph 9.0 mph 94 % 0.00 in 0 W/m2
01:04 39.0 °F 37.4 °F 30.40 in NNE 4.0 mph 9.0 mph 94 % 0.00 in 0 W/m2
01:09 39.2 °F 37.6 °F 30.40 in NNE 3.0 mph 9.0 mph 94 % 0.00 in 0 W/m2
01:14 39.2 °F 37.6 °F 30.40 in NNE 3.0 mph 9.0 mph 94 % 0.00 in 0 W/m2
01:19 39.2 °F 37.6 °F 30.40 in NNE 4.0 mph 9.0 mph 94 % 0.00 in 0 W/m2
01:24 39.2 °F 37.6 °F 30.41 in NNE 5.0 mph 9.0 mph 94 % 0.00 in 0 W/m2
01:29 39.2 °F 37.6 °F 30.41 in NNE 4.0 mph 8.0 mph 94 % 0.00 in 0 W/m2
01:34 39.0 °F 37.4 °F 30.41 in NNE 4.0 mph 8.0 mph 94 % 0.00 in 0 W/m2
01:39 39.0 °F 37.4 °F 30.41 in North 4.0 mph 8.0 mph 94 % 0.00 in 0 W/m2
01:44 38.8 °F 37.3 °F 30.41 in NNE 4.0 mph 9.0 mph 94 % 0.00 in 0 W/m2
01:49 38.8 °F 37.3 °F 30.42 in NNE 4.0 mph 9.0 mph 94 % 0.00 in 0 W/m2
01:54 38.8 °F 37.3 °F 30.42 in NNE 4.0 mph 9.0 mph 94 % 0.00 in 0 W/m2
01:59 38.7 °F 37.1 °F 30.42 in NNE 5.0 mph 10.0 mph 94 % 0.00 in 0 W/m2
02:04 38.5 °F 36.9 °F 30.42 in North 5.0 mph 10.0 mph 94 % 0.00 in 0 W/m2
02:09 38.3 °F 36.7 °F 30.41 in North 5.0 mph 9.0 mph 94 % 0.00 in 0 W/m2
02:14 38.1 °F 36.5 °F 30.41 in NNE 3.0 mph 8.0 mph 94 % 0.00 in 0 W/m2
02:19 37.9 °F 36.4 °F 30.41 in NNE 2.0 mph 7.0 mph 94 % 0.00 in 0 W/m2
02:25 37.9 °F 36.4 °F 30.41 in NNE 2.0 mph 7.0 mph 94 % 0.00 in 0 W/m2
02:30 37.8 °F 36.2 °F 30.41 in NE 2.0 mph 8.0 mph 94 % 0.00 in 0 W/m2
02:35 37.6 °F 36.0 °F 30.41 in NE 2.0 mph 8.0 mph 94 % 0.00 in 0 W/m2
02:40 37.6 °F 36.0 °F 30.41 in NNE 2.0 mph 8.0 mph 94 % 0.00 in 0 W/m2
02:45 37.6 °F 36.3 °F 30.41 in NNE 3.0 mph 7.0 mph 95 % 0.00 in 0 W/m2
02:50 37.4 °F 36.1 °F 30.41 in NNE 3.0 mph 8.0 mph 95 % 0.00 in 0 W/m2
02:55 37.4 °F 36.1 °F 30.41 in NNE 4.0 mph 8.0 mph 95 % 0.00 in 0 W/m2
03:00 37.2 °F 35.9 °F 30.41 in NNE 2.0 mph 7.0 mph 95 % 0.00 in 0 W/m2
03:05 37.0 °F 35.7 °F 30.41 in NNE 1.0 mph 7.0 mph 95 % 0.00 in 0 W/m2
03:10 37.0 °F 35.5 °F 30.41 in Calm     94 % 0.00 in 0 W/m2
03:15 36.9 °F 35.6 °F 30.41 in Calm   1.0 mph 95 % 0.00 in 0 W/m2
03:20 36.7 °F 35.4 °F 30.42 in Calm   1.0 mph 95 % 0.00 in 0 W/m2
03:25 36.5 °F 35.2 °F 30.41 in Calm     95 % 0.00 in 0 W/m2
03:30 36.3 °F 35.0 °F 30.42 in Calm   1.0 mph 95 % 0.00 in 0 W/m2
03:35 36.1 °F 34.8 °F 30.42 in Calm   3.0 mph 95 % 0.00 in 0 W/m2
03:40 36.1 °F 34.8 °F 30.41 in NE 1.0 mph 5.0 mph 95 % 0.00 in 0 W/m2
03:45 36.3 °F 35.0 °F 30.42 in NE 1.0 mph 5.0 mph 95 % 0.00 in 0 W/m2
03:50 36.3 °F 35.0 °F 30.42 in ENE 1.0 mph 5.0 mph 95 % 0.00 in 0 W/m2
03:55 36.1 °F 34.8 °F 30.42 in NE 1.0 mph 5.0 mph 95 % 0.00 in 0 W/m2
04:00 36.1 °F 34.8 °F 30.42 in NNE 1.0 mph 5.0 mph 95 % 0.00 in 0 W/m2
04:05 36.1 °F 34.8 °F 30.42 in Calm   5.0 mph 95 % 0.00 in 0 W/m2
04:10 36.1 °F 34.8 °F 30.42 in Calm   2.0 mph 95 % 0.00 in 0 W/m2
04:15 36.0 °F 34.7 °F 30.42 in Calm   2.0 mph 95 % 0.00 in 0 W/m2
04:20 36.0 °F 34.7 °F 30.42 in Calm   2.0 mph 95 % 0.00 in 0 W/m2
04:25 35.8 °F 34.5 °F 30.42 in Calm   2.0 mph 95 % 0.00 in 0 W/m2
04:30 35.8 °F 34.5 °F 30.43 in Calm   4.0 mph 95 % 0.00 in 0 W/m2
04:35 35.8 °F 34.5 °F 30.43 in NNW 1.0 mph 5.0 mph 95 % 0.00 in 0 W/m2
04:40 35.8 °F 34.8 °F 30.43 in North 1.0 mph 5.0 mph 96 % 0.00 in 0 W/m2
04:45 35.8 °F 34.8 °F 30.43 in North 1.0 mph 6.0 mph 96 % 0.00 in 0 W/m2
04:50 36.0 °F 34.9 °F 30.43 in North 2.0 mph 8.0 mph 96 % 0.00 in 0 W/m2
04:55 36.1 °F 35.1 °F 30.43 in North 3.0 mph 9.0 mph 96 % 0.00 in 0 W/m2
05:00 36.1 °F 35.1 °F 30.44 in North 2.0 mph 9.0 mph 96 % 0.00 in 0 W/m2
05:05 36.0 °F 34.9 °F 30.44 in NNE 2.0 mph 9.0 mph 96 % 0.00 in 0 W/m2
05:10 36.0 °F 34.9 °F 30.43 in NNE 2.0 mph 9.0 mph 96 % 0.00 in 0 W/m2
05:15 36.0 °F 34.7 °F 30.44 in Calm   7.0 mph 95 % 0.00 in 0 W/m2
05:20 35.8 °F 34.5 °F 30.43 in Calm   4.0 mph 95 % 0.00 in 0 W/m2
05:25 35.8 °F 34.5 °F 30.43 in Calm   4.0 mph 95 % 0.00 in 0 W/m2
05:30 35.8 °F 34.8 °F 30.43 in NNE 1.0 mph 7.0 mph 96 % 0.00 in 0 W/m2
05:35 35.8 °F 34.8 °F 30.43 in NNE 2.0 mph 7.0 mph 96 % 0.00 in 0 W/m2
05:41 35.6 °F 34.6 °F 30.43 in NNE 1.0 mph 6.0 mph 96 % 0.00 in 0 W/m2
05:46 35.6 °F 34.6 °F 30.43 in NNE 1.0 mph 6.0 mph 96 % 0.00 in 0 W/m2
05:51 35.4 °F 34.4 °F 30.43 in Calm   3.0 mph 96 % 0.00 in 5 W/m2
05:56 35.4 °F 34.1 °F 30.44 in Calm   3.0 mph 95 % 0.00 in 5 W/m2
06:01 35.2 °F 34.2 °F 30.44 in NNE 1.0 mph 7.0 mph 96 % 0.00 in 5 W/m2
06:06 35.2 °F 34.2 °F 30.44 in NNE 1.0 mph 7.0 mph 96 % 0.00 in 9 W/m2
06:11 35.2 °F 34.2 °F 30.44 in Calm   4.0 mph 96 % 0.00 in 14 W/m2
06:16 35.1 °F 34.0 °F 30.44 in Calm   5.0 mph 96 % 0.00 in 19 W/m2
06:21 35.2 °F 34.2 °F 30.44 in North 1.0 mph 5.0 mph 96 % 0.00 in 23 W/m2
06:26 35.4 °F 34.4 °F 30.45 in North 2.0 mph 9.0 mph 96 % 0.00 in 26 W/m2
06:31 35.8 °F 34.8 °F 30.45 in North 3.0 mph 9.0 mph 96 % 0.00 in 28 W/m2
06:36 36.0 °F 34.9 °F 30.45 in NNE 4.0 mph 9.0 mph 96 % 0.00 in 30 W/m2
06:41 36.0 °F 34.9 °F 30.46 in NNE 5.0 mph 10.0 mph 96 % 0.00 in 33 W/m2
06:46 36.1 °F 35.1 °F 30.46 in North 6.0 mph 10.0 mph 96 % 0.00 in 39 W/m2
06:51 36.1 °F 35.1 °F 30.46 in North 6.0 mph 13.0 mph 96 % 0.00 in 44 W/m2
06:56 36.3 °F 35.3 °F 30.46 in North 6.0 mph 13.0 mph 96 % 0.00 in 54 W/m2
07:01 36.3 °F 35.3 °F 30.46 in North 6.0 mph 15.0 mph 96 % 0.00 in 62 W/m2
07:06 36.7 °F 35.6 °F 30.46 in North 7.0 mph 15.0 mph 96 % 0.00 in 139 W/m2
07:11 37.0 °F 36.0 °F 30.47 in North 8.0 mph 13.0 mph 96 % 0.00 in 160 W/m2
07:16 37.2 °F 36.2 °F 30.47 in North 8.0 mph 14.0 mph 96 % 0.00 in 181 W/m2
07:21 37.6 °F 36.5 °F 30.47 in NNE 8.0 mph 14.0 mph 96 % 0.00 in 190 W/m2
07:26 37.9 °F 36.9 °F 30.47 in NNE 7.0 mph 14.0 mph 96 % 0.00 in 239 W/m2
07:31 38.1 °F 37.1 °F 30.47 in NNE 7.0 mph 12.0 mph 96 % 0.00 in 253 W/m2
07:36 38.5 °F 37.4 °F 30.47 in North 8.0 mph 13.0 mph 96 % 0.00 in 216 W/m2
07:41 38.8 °F 37.8 °F 30.48 in NNE 7.0 mph 13.0 mph 96 % 0.00 in 200 W/m2
07:46 39.0 °F 38.0 °F 30.48 in NNE 4.0 mph 11.0 mph 96 % 0.00 in 163 W/m2
07:51 39.4 °F 38.1 °F 30.48 in NE 2.0 mph 9.0 mph 95 % 0.00 in 178 W/m2
07:56 39.6 °F 38.2 °F 30.48 in NE 1.0 mph 6.0 mph 95 % 0.00 in 171 W/m2
08:01 39.9 °F 38.6 °F 30.48 in NE 1.0 mph 4.0 mph 95 % 0.00 in 221 W/m2
08:06 40.3 °F 39.0 °F 30.48 in NE 1.0 mph 6.0 mph 95 % 0.00 in 199 W/m2
08:11 40.6 °F 39.0 °F 30.49 in NE 1.0 mph 6.0 mph 94 % 0.00 in 178 W/m2
08:16 40.8 °F 39.0 °F 30.49 in NE 1.0 mph 5.0 mph 93 % 0.00 in 174 W/m2
08:21 41.0 °F 39.1 °F 30.49 in NE 2.0 mph 7.0 mph 93 % 0.00 in 188 W/m2
08:26 41.2 °F 39.3 °F 30.49 in NE 3.0 mph 7.0 mph 93 % 0.00 in 267 W/m2
08:31 41.5 °F 39.4 °F 30.49 in NE 3.0 mph 7.0 mph 92 % 0.00 in 265 W/m2
08:36 42.1 °F 39.9 °F 30.49 in NE 2.0 mph 6.0 mph 92 % 0.00 in 309 W/m2
08:41 42.8 °F 40.4 °F 30.50 in ENE 2.0 mph 8.0 mph 91 % 0.00 in 388 W/m2
08:46 43.5 °F 40.8 °F 30.50 in ENE 3.0 mph 8.0 mph 90 % 0.00 in 399 W/m2
08:51 44.1 °F 40.4 °F 30.50 in ENE 3.0 mph 9.0 mph 87 % 0.00 in 415 W/m2
08:57 44.6 °F 41.0 °F 30.50 in ENE 3.0 mph 9.0 mph 87 % 0.00 in 429 W/m2
09:02 45.0 °F 40.4 °F 30.50 in NE 3.0 mph 8.0 mph 84 % 0.00 in 432 W/m2
09:07 45.0 °F 40.4 °F 30.50 in NE 5.0 mph 11.0 mph 84 % 0.00 in 434 W/m2
09:12 45.1 °F 40.3 °F 30.50 in NNE 5.0 mph 11.0 mph 83 % 0.00 in 461 W/m2
09:17 45.7 °F 40.8 °F 30.50 in NE 4.0 mph 9.0 mph 83 % 0.00 in 452 W/m2
09:22 46.0 °F 40.5 °F 30.50 in NE 4.0 mph 11.0 mph 81 % 0.00 in 485 W/m2
09:27 46.6 °F 40.4 °F 30.51 in ENE 4.0 mph 11.0 mph 79 % 0.00 in 501 W/m2
09:32 46.9 °F 40.4 °F 30.51 in ENE 5.0 mph 10.0 mph 78 % 0.00 in 510 W/m2
09:37 47.1 °F 40.6 °F 30.51 in ENE 5.0 mph 10.0 mph 78 % 0.00 in 519 W/m2
09:42 47.5 °F 39.9 °F 30.51 in ENE 5.0 mph 10.0 mph 75 % 0.00 in 529 W/m2
09:47 47.7 °F 40.5 °F 30.51 in ENE 4.0 mph 10.0 mph 76 % 0.00 in 541 W/m2
09:52 47.7 °F 40.1 °F 30.51 in ENE 5.0 mph 12.0 mph 75 % 0.00 in 555 W/m2
09:57 48.0 °F 40.5 °F 30.52 in ENE 5.0 mph 12.0 mph 75 % 0.00 in 561 W/m2
10:02 48.6 °F 40.6 °F 30.51 in ENE 4.0 mph 10.0 mph 74 % 0.00 in 570 W/m2
10:07 48.9 °F 40.3 °F 30.51 in ENE 4.0 mph 11.0 mph 72 % 0.00 in 582 W/m2
10:12 48.9 °F 40.3 °F 30.52 in ENE 6.0 mph 16.0 mph 72 % 0.00 in 587 W/m2
10:17 49.3 °F 40.6 °F 30.51 in ENE 6.0 mph 16.0 mph 72 % 0.00 in 603 W/m2
10:22 49.6 °F 41.0 °F 30.52 in East 5.0 mph 12.0 mph 72 % 0.00 in 608 W/m2
10:27 49.8 °F 41.2 °F 30.52 in ENE 5.0 mph 12.0 mph 72 % 0.00 in 628 W/m2
10:32 49.8 °F 41.2 °F 30.53 in ENE 6.0 mph 14.0 mph 72 % 0.00 in 631 W/m2
10:37 50.0 °F 41.7 °F 30.53 in ENE 7.0 mph 14.0 mph 73 % 0.00 in 656 W/m2
10:42 50.0 °F 41.0 °F 30.52 in ENE 7.0 mph 15.0 mph 71 % 0.00 in 696 W/m2
10:47 50.2 °F 41.1 °F 30.53 in ENE 8.0 mph 15.0 mph 71 % 0.00 in 668 W/m2
10:52 50.4 °F 40.6 °F 30.52 in ENE 7.0 mph 14.0 mph 69 % 0.00 in 664 W/m2
10:57 50.7 °F 40.2 °F 30.53 in ENE 7.0 mph 13.0 mph 67 % 0.00 in 656 W/m2
11:02 51.1 °F 39.7 °F 30.53 in ENE 7.0 mph 13.0 mph 65 % 0.00 in 657 W/m2
11:07 51.6 °F 40.2 °F 30.52 in East 6.0 mph 13.0 mph 65 % 0.00 in 656 W/m2
11:13 52.2 °F 40.3 °F 30.52 in East 5.0 mph 11.0 mph 64 % 0.00 in 671 W/m2
11:18 52.5 °F 41.1 °F 30.52 in East 6.0 mph 13.0 mph 65 % 0.00 in 663 W/m2
11:23 52.5 °F 41.1 °F 30.51 in East 6.0 mph 13.0 mph 65 % 0.00 in 652 W/m2
11:28 52.5 °F 40.7 °F 30.52 in East 6.0 mph 12.0 mph 64 % 0.00 in 657 W/m2
11:33 52.9 °F 39.8 °F 30.51 in East 7.0 mph 14.0 mph 61 % 0.00 in 675 W/m2
11:38 52.9 °F 39.8 °F 30.51 in East 7.0 mph 14.0 mph 61 % 0.00 in 686 W/m2
11:43 53.2 °F 38.4 °F 30.51 in East 7.0 mph 14.0 mph 57 % 0.00 in 684 W/m2
11:48 53.1 °F 38.2 °F 30.51 in East 8.0 mph 14.0 mph 57 % 0.00 in 668 W/m2
11:53 53.1 °F 37.8 °F 30.51 in East 8.0 mph 14.0 mph 56 % 0.00 in 663 W/m2
11:58 53.1 °F 37.3 °F 30.51 in ESE 8.0 mph 14.0 mph 55 % 0.00 in 680 W/m2
12:03 53.2 °F 38.4 °F 30.51 in ESE 8.0 mph 14.0 mph 57 % 0.00 in 666 W/m2
12:07 53.2 °F 38.8 °F 30.51 in East 6.0 mph 14.0 mph 58 % 0.00 in 687 W/m2
12:12 53.6 °F 38.7 °F 30.51 in East 5.0 mph 11.0 mph 57 % 0.00 in 684 W/m2
12:17 54.0 °F 38.1 °F 30.51 in East 6.0 mph 15.0 mph 55 % 0.00 in 693 W/m2
12:22 54.0 °F 37.7 °F 30.51 in ESE 7.0 mph 15.0 mph 54 % 0.00 in 700 W/m2
12:27 54.1 °F 37.8 °F 30.51 in East 7.0 mph 15.0 mph 54 % 0.00 in 689 W/m2
12:32 54.3 °F 38.5 °F 30.51 in East 6.0 mph 15.0 mph 55 % 0.00 in 687 W/m2
12:37 54.5 °F 36.2 °F 30.51 in East 7.0 mph 16.0 mph 50 % 0.00 in 642 W/m2
12:42 54.3 °F 35.5 °F 30.51 in East 7.0 mph 16.0 mph 49 % 0.00 in 652 W/m2
12:47 54.3 °F 35.5 °F 30.51 in East 7.0 mph 12.0 mph 49 % 0.00 in 670 W/m2
12:52 54.3 °F 36.6 °F 30.51 in East 6.0 mph 12.0 mph 51 % 0.00 in 664 W/m2
12:57 54.5 °F 38.2 °F 30.51 in ENE 6.0 mph 13.0 mph 54 % 0.00 in 673 W/m2
13:02 54.9 °F 37.1 °F 30.51 in East 6.0 mph 13.0 mph 51 % 0.00 in 642 W/m2
13:07 54.7 °F 35.9 °F 30.51 in East 5.0 mph 11.0 mph 49 % 0.00 in 656 W/m2
13:12 54.9 °F 34.5 °F 30.51 in East 6.0 mph 16.0 mph 46 % 0.00 in 663 W/m2
13:17 54.9 °F 35.0 °F 30.52 in East 8.0 mph 16.0 mph 47 % 0.00 in 650 W/m2
13:22 54.9 °F 34.5 °F 30.52 in East 8.0 mph 14.0 mph 46 % 0.00 in 654 W/m2
13:27 54.7 °F 35.4 °F 30.52 in East 8.0 mph 14.0 mph 48 % 0.00 in 650 W/m2
13:32 54.7 °F 35.4 °F 30.52 in East 8.0 mph 14.0 mph 48 % 0.00 in 650 W/m2
13:37 54.7 °F 35.9 °F 30.52 in East 7.0 mph 14.0 mph 49 % 0.00 in 645 W/m2
13:42 54.7 °F 34.8 °F 30.52 in East 7.0 mph 13.0 mph 47 % 0.00 in 635 W/m2
13:47 54.9 °F 36.0 °F 30.52 in ESE 8.0 mph 13.0 mph 49 % 0.00 in 629 W/m2
13:52 55.0 °F 36.2 °F 30.51 in ESE 7.0 mph 12.0 mph 49 % 0.00 in 626 W/m2
13:57 55.2 °F 35.3 °F 30.51 in East 8.0 mph 14.0 mph 47 % 0.00 in 564 W/m2
14:02 55.0 °F 35.7 °F 30.51 in East 7.0 mph 14.0 mph 48 % 0.00 in 608 W/m2
14:07 55.4 °F 34.9 °F 30.51 in ENE 6.0 mph 12.0 mph 46 % 0.00 in 605 W/m2
14:13 55.4 °F 34.9 °F 30.51 in East 6.0 mph 13.0 mph 46 % 0.00 in 601 W/m2
14:18 55.6 °F 35.1 °F 30.51 in East 7.0 mph 13.0 mph 46 % 0.00 in 594 W/m2
14:23 55.4 °F 35.5 °F 30.50 in East 6.0 mph 12.0 mph 47 % 0.00 in 578 W/m2
14:28 55.6 °F 35.1 °F 30.50 in East 6.0 mph 12.0 mph 46 % 0.00 in 557 W/m2
14:33 55.8 °F 35.3 °F 30.50 in East 6.0 mph 12.0 mph 46 % 0.00 in 555 W/m2
14:38 55.8 °F 35.8 °F 30.50 in ENE 6.0 mph 12.0 mph 47 % 0.00 in 552 W/m2
14:43 55.8 °F 35.8 °F 30.50 in ENE 6.0 mph 12.0 mph 47 % 0.00 in 524 W/m2
14:48 55.6 °F 36.2 °F 30.50 in East 6.0 mph 11.0 mph 48 % 0.00 in 519 W/m2
14:53 55.6 °F 37.2 °F 30.50 in ENE 6.0 mph 12.0 mph 50 % 0.00 in 510 W/m2
14:58 55.2 °F 36.9 °F 30.50 in ENE 6.0 mph 13.0 mph 50 % 0.00 in 496 W/m2
15:03 55.0 °F 37.2 °F 30.50 in ENE 6.0 mph 13.0 mph 51 % 0.00 in 492 W/m2
15:08 55.2 °F 36.4 °F 30.50 in ENE 5.0 mph 11.0 mph 49 % 0.00 in 489 W/m2
15:13 55.8 °F 37.4 °F 30.50 in East 3.0 mph 9.0 mph 50 % 0.00 in 441 W/m2
15:18 55.8 °F 36.4 °F 30.50 in ENE 4.0 mph 11.0 mph 48 % 0.00 in 434 W/m2
15:23 55.2 °F 35.9 °F 30.50 in ENE 7.0 mph 12.0 mph 48 % 0.00 in 434 W/m2
15:28 55.0 °F 36.7 °F 30.50 in ENE 6.0 mph 12.0 mph 50 % 0.00 in 425 W/m2
15:33 55.0 °F 35.2 °F 30.51 in ENE 6.0 mph 11.0 mph 47 % 0.00 in 417 W/m2
15:38 55.0 °F 34.6 °F 30.51 in East 7.0 mph 11.0 mph 46 % 0.00 in 408 W/m2
15:43 55.0 °F 34.6 °F 30.51 in East 6.0 mph 11.0 mph 46 % 0.00 in 403 W/m2
15:48 55.0 °F 36.7 °F 30.51 in East 5.0 mph 10.0 mph 50 % 0.00 in 397 W/m2
15:53 54.9 °F 38.0 °F 30.51 in ENE 5.0 mph 12.0 mph 53 % 0.00 in 394 W/m2
15:58 54.7 °F 37.9 °F 30.50 in ENE 6.0 mph 12.0 mph 53 % 0.00 in 387 W/m2
16:03 54.3 °F 38.0 °F 30.50 in ENE 6.0 mph 13.0 mph 54 % 0.00 in 338 W/m2
16:08 54.0 °F 37.2 °F 30.50 in ENE 7.0 mph 16.0 mph 53 % 0.00 in 251 W/m2
16:13 53.8 °F 37.0 °F 30.50 in ENE 6.0 mph 16.0 mph 53 % 0.00 in 352 W/m2
16:18 53.8 °F 38.0 °F 30.50 in ENE 5.0 mph 10.0 mph 55 % 0.00 in 301 W/m2
16:23 53.8 °F 38.0 °F 30.51 in ENE 5.0 mph 10.0 mph 55 % 0.00 in 155 W/m2
16:28 53.2 °F 37.5 °F 30.51 in ENE 6.0 mph 10.0 mph 55 % 0.00 in 255 W/m2
16:29 53.2 °F 37.5 °F 30.51 in ENE 5.0 mph 10.0 mph 55 % 0.00 in 265 W/m2
16:34 53.1 °F 37.3 °F 30.51 in ENE 5.0 mph 10.0 mph 55 % 0.00 in 128 W/m2
16:35 53.1 °F 37.8 °F 30.50 in ENE 5.0 mph 10.0 mph 56 % 0.00 in 95 W/m2
16:40 52.7 °F 37.4 °F 30.51 in East 4.0 mph 10.0 mph 56 % 0.00 in 141 W/m2
16:45 52.5 °F 37.3 °F 30.51 in East 4.0 mph 10.0 mph 56 % 0.00 in 229 W/m2
16:50 52.7 °F 37.4 °F 30.51 in East 4.0 mph 9.0 mph 56 % 0.00 in 216 W/m2
16:55 52.7 °F 37.0 °F 30.51 in East 5.0 mph 10.0 mph 55 % 0.00 in 192 W/m2
17:00 52.7 °F 36.5 °F 30.51 in East 4.0 mph 10.0 mph 54 % 0.00 in 186 W/m2
17:05 52.5 °F 36.3 °F 30.51 in ENE 5.0 mph 11.0 mph 54 % 0.00 in 172 W/m2
17:10 52.3 °F 35.7 °F 30.51 in ENE 6.0 mph 11.0 mph 53 % 0.00 in 158 W/m2
17:15 52.2 °F 34.6 °F 30.52 in East 6.0 mph 12.0 mph 51 % 0.00 in 144 W/m2
17:20 52.0 °F 34.9 °F 30.52 in East 5.0 mph 12.0 mph 52 % 0.00 in 125 W/m2
17:25 51.6 °F 34.1 °F 30.52 in ENE 5.0 mph 11.0 mph 51 % 0.00 in 107 W/m2
17:30 51.4 °F 34.4 °F 30.52 in ENE 5.0 mph 11.0 mph 52 % 0.00 in 70 W/m2
17:35 51.1 °F 34.5 °F 30.52 in East 4.0 mph 9.0 mph 53 % 0.00 in 37 W/m2
17:40 50.7 °F 34.7 °F 30.52 in ENE 4.0 mph 9.0 mph 54 % 0.00 in 25 W/m2
17:45 50.4 °F 34.8 °F 30.52 in ENE 3.0 mph 9.0 mph 55 % 0.00 in 30 W/m2
17:50 50.0 °F 34.9 °F 30.52 in East 2.0 mph 8.0 mph 56 % 0.00 in 42 W/m2
17:55 49.8 °F 35.6 °F 30.52 in East 3.0 mph 7.0 mph 58 % 0.00 in 44 W/m2
18:00 49.6 °F 35.9 °F 30.52 in East 3.0 mph 7.0 mph 59 % 0.00 in 28 W/m2
18:05 49.3 °F 36.0 °F 30.53 in East 3.0 mph 8.0 mph 60 % 0.00 in 19 W/m2
18:10 49.1 °F 35.8 °F 30.53 in ENE 3.0 mph 8.0 mph 60 % 0.00 in 16 W/m2
18:15 48.7 °F 35.9 °F 30.53 in ENE 3.0 mph 7.0 mph 61 % 0.00 in 14 W/m2
18:20 48.6 °F 36.1 °F 30.53 in ENE 2.0 mph 7.0 mph 62 % 0.00 in 11 W/m2
18:25 48.2 °F 35.8 °F 30.53 in ENE 2.0 mph 7.0 mph 62 % 0.00 in 5 W/m2
18:30 47.8 °F 35.4 °F 30.53 in ENE 3.0 mph 7.0 mph 62 % 0.00 in 0 W/m2
18:36 47.7 °F 35.7 °F 30.53 in ENE 3.0 mph 7.0 mph 63 % 0.00 in 0 W/m2
18:41 47.5 °F 35.9 °F 30.54 in ENE 2.0 mph 6.0 mph 64 % 0.00 in 0 W/m2
18:46 47.1 °F 36.0 °F 30.54 in ENE 1.0 mph 6.0 mph 65 % 0.00 in 0 W/m2
18:51 46.8 °F 35.2 °F 30.54 in ENE 2.0 mph 8.0 mph 64 % 0.00 in 0 W/m2
18:56 46.6 °F 34.7 °F 30.54 in ENE 3.0 mph 8.0 mph 63 % 0.00 in 0 W/m2
19:01 46.4 °F 34.5 °F 30.54 in ENE 3.0 mph 8.0 mph 63 % 0.00 in 0 W/m2
19:06 46.2 °F 34.3 °F 30.54 in ENE 2.0 mph 6.0 mph 63 % 0.00 in 0 W/m2
19:11 46.0 °F 34.5 °F 30.55 in ENE 1.0 mph 6.0 mph 64 % 0.00 in 0 W/m2
19:16 45.9 °F 34.8 °F 30.55 in Calm   4.0 mph 65 % 0.00 in 0 W/m2
19:21 45.3 °F 34.2 °F 30.56 in Calm   5.0 mph 65 % 0.00 in 0 W/m2
19:26 45.1 °F 34.1 °F 30.56 in East 1.0 mph 5.0 mph 65 % 0.00 in 0 W/m2
19:31 45.0 °F 34.3 °F 30.56 in ENE 1.0 mph 5.0 mph 66 % 0.00 in 0 W/m2
19:36 44.8 °F 34.5 °F 30.56 in Calm   5.0 mph 67 % 0.00 in 0 W/m2
19:41 44.4 °F 34.1 °F 30.56 in Calm   5.0 mph 67 % 0.00 in 0 W/m2
19:46 44.2 °F 34.3 °F 30.56 in Calm   2.0 mph 68 % 0.00 in 0 W/m2
19:51 43.9 °F 34.4 °F 30.56 in Calm     69 % 0.00 in 0 W/m2
19:56 43.5 °F 34.4 °F 30.56 in Calm     70 % 0.00 in 0 W/m2
20:01 43.2 °F 34.4 °F 30.56 in Calm     71 % 0.00 in 0 W/m2
20:02 43.2 °F 34.4 °F 30.57 in Calm     71 % 0.00 in 0 W/m2
20:07 42.8 °F 34.4 °F 30.57 in Calm     72 % 0.00 in 0 W/m2
20:12 42.4 °F 34.0 °F 30.57 in Calm     72 % 0.00 in 0 W/m2
20:17 42.1 °F 34.0 °F 30.57 in Calm     73 % 0.00 in 0 W/m2
20:22 41.5 °F 33.5 °F 30.58 in Calm     73 % 0.00 in 0 W/m2
20:27 41.2 °F 33.5 °F 30.58 in Calm     74 % 0.00 in 0 W/m2
20:32 40.8 °F 33.5 °F 30.58 in Calm     75 % 0.00 in 0 W/m2
20:37 40.5 °F 33.5 °F 30.58 in Calm     76 % 0.00 in 0 W/m2
20:42 40.3 °F 33.6 °F 30.58 in Calm     77 % 0.00 in 0 W/m2
20:47 39.9 °F 33.3 °F 30.58 in Calm     77 % 0.00 in 0 W/m2
20:52 39.7 °F 33.4 °F 30.58 in Calm     78 % 0.00 in 0 W/m2
20:57 39.6 °F 33.6 °F 30.58 in Calm     79 % 0.00 in 0 W/m2
21:02 39.2 °F 33.2 °F 30.58 in Calm     79 % 0.00 in 0 W/m2
21:07 38.8 °F 33.2 °F 30.58 in Calm     80 % 0.00 in 0 W/m2
21:12 38.5 °F 33.2 °F 30.58 in Calm     81 % 0.00 in 0 W/m2
21:17 38.3 °F 33.3 °F 30.58 in Calm     82 % 0.00 in 0 W/m2
21:22 37.9 °F 32.9 °F 30.59 in Calm     82 % 0.00 in 0 W/m2
21:23 37.9 °F 32.9 °F 30.59 in Calm     82 % 0.00 in 0 W/m2
21:33 37.6 °F 32.9 °F 30.59 in ENE 1.0 mph 4.0 mph 83 % 0.00 in 0 W/m2
21:38 37.6 °F 33.2 °F 30.59 in ENE 1.0 mph 4.0 mph 84 % 0.00 in 0 W/m2
21:43 37.4 °F 33.0 °F 30.59 in Calm   2.0 mph 84 % 0.00 in 0 W/m2
21:48 37.2 °F 32.8 °F 30.59 in Calm     84 % 0.00 in 0 W/m2
21:53 37.0 °F 32.7 °F 30.60 in Calm     84 % 0.00 in 0 W/m2
21:58 36.9 °F 32.5 °F 30.60 in Calm     84 % 0.00 in 0 W/m2
22:03 36.7 °F 32.6 °F 30.60 in Calm     85 % 0.00 in 0 W/m2
22:08 36.5 °F 32.4 °F 30.60 in Calm     85 % 0.00 in 0 W/m2
22:13 36.1 °F 32.1 °F 30.60 in Calm     85 % 0.00 in 0 W/m2
22:18 36.1 °F 32.4 °F 30.60 in Calm     86 % 0.00 in 0 W/m2
22:23 36.1 °F 32.4 °F 30.60 in Calm     86 % 0.00 in 0 W/m2
22:28 36.0 °F 32.2 °F 30.60 in Calm     86 % 0.00 in 0 W/m2
22:33 35.8 °F 32.0 °F 30.60 in Calm     86 % 0.00 in 0 W/m2
22:35 35.6 °F 31.8 °F 30.60 in Calm     86 % 0.00 in 0 W/m2
22:40 35.6 °F 32.1 °F 30.59 in Calm     87 % 0.00 in 0 W/m2
22:45 35.2 °F 31.5 °F 30.59 in Calm     86 % 0.00 in 0 W/m2
22:50 35.1 °F 31.3 °F 30.59 in Calm     86 % 0.00 in 0 W/m2
22:55 34.9 °F 31.4 °F 30.59 in Calm     87 % 0.00 in 0 W/m2
23:00 34.5 °F 31.0 °F 30.60 in Calm     87 % 0.00 in 0 W/m2
23:05 34.3 °F 30.9 °F 30.59 in Calm     87 % 0.00 in 0 W/m2
23:10 34.2 °F 31.0 °F 30.59 in Calm     88 % 0.00 in 0 W/m2
23:15 34.0 °F 30.8 °F 30.60 in Calm     88 % 0.00 in 0 W/m2
23:20 34.0 °F 30.8 °F 30.59 in Calm     88 % 0.00 in 0 W/m2
23:25 33.8 °F 30.6 °F 30.59 in Calm     88 % 0.00 in 0 W/m2
23:30 33.6 °F 30.4 °F 30.59 in Calm     88 % 0.00 in 0 W/m2
23:35 33.6 °F 30.7 °F 30.59 in Calm     89 % 0.00 in 0 W/m2
23:40 33.4 °F 30.5 °F 30.59 in Calm     89 % 0.00 in 0 W/m2
23:45 33.3 °F 30.4 °F 30.59 in Calm     89 % 0.00 in 0 W/m2
23:50 33.3 °F 30.6 °F 30.59 in Calm     90 % 0.00 in 0 W/m2
23:55 33.3 °F 30.4 °F 30.60 in Calm     89 % 0.00 in 0 W/m2
Delerius-Weather
Compliments of Weather Underground - 2.25 mb

Data updates at regular intervals.